Ararat, North Carolina
Current Conditions -  °F | °C
As of 7:15 AM on Monday 26 Jan 2015 (Local Time) from KMWK Reporting Station
Overcast Overcast  
Wind Chill:   Ceiling: 6000
Heat Index:   Visibility: 10mi
Dew Point:   Wind: 5mph
Humidity: 80%   Direction: 70°ENE
Pressure: 29.66"   Gusts: NA
Location:  36.4°N, 80.56°W
Report Text: KMWK 261215Z AUTO 07004KT 10SM SCT044 OVC060 05/02 A2966 RMK AO2 T00490017
Loading
Personal Weather Stations






























Interactive Weather Map New forecast layout! Learn more

10-Day Weather Forecast

Advertisements
Track Severe Weather on mobile